sensor_id;sensor_type;location;lat;lon;timestamp;temperature;humidity
8563;DHT22;16392;52.508;13.468;2022-09-16T00:00:16;12.40;99.90
8563;DHT22;16392;52.508;13.468;2022-09-16T00:02:42;12.30;99.90
8563;DHT22;16392;52.508;13.468;2022-09-16T00:05:09;12.30;99.90
8563;DHT22;16392;52.508;13.468;2022-09-16T00:07:37;12.20;99.90
8563;DHT22;16392;52.508;13.468;2022-09-16T00:10:05;12.20;99.90
8563;DHT22;16392;52.508;13.468;2022-09-16T00:12:32;12.20;99.90
8563;DHT22;16392;52.508;13.468;2022-09-16T00:14:58;12.20;99.90
8563;DHT22;16392;52.508;13.468;2022-09-16T00:17:25;12.10;99.90
8563;DHT22;16392;52.508;13.468;2022-09-16T00:19:52;12.10;99.90
8563;DHT22;16392;52.508;13.468;2022-09-16T00:22:18;12.10;99.90
8563;DHT22;16392;52.508;13.468;2022-09-16T00:24:47;12.00;99.90
8563;DHT22;16392;52.508;13.468;2022-09-16T00:27:14;12.00;99.90
8563;DHT22;16392;52.508;13.468;2022-09-16T00:29:41;11.90;99.90
8563;DHT22;16392;52.508;13.468;2022-09-16T00:32:07;11.90;99.90
8563;DHT22;16392;52.508;13.468;2022-09-16T00:34:34;11.90;99.90
8563;DHT22;16392;52.508;13.468;2022-09-16T00:37:00;11.90;99.90
8563;DHT22;16392;52.508;13.468;2022-09-16T00:39:27;11.80;99.90
8563;DHT22;16392;52.508;13.468;2022-09-16T00:41:55;11.80;99.90
8563;DHT22;16392;52.508;13.468;2022-09-16T00:44:51;11.70;99.90
8563;DHT22;16392;52.508;13.468;2022-09-16T00:47:21;11.70;99.90
8563;DHT22;16392;52.508;13.468;2022-09-16T00:49:49;11.70;99.90
8563;DHT22;16392;52.508;13.468;2022-09-16T00:52:16;11.70;99.90
8563;DHT22;16392;52.508;13.468;2022-09-16T00:54:44;11.70;99.90
8563;DHT22;16392;52.508;13.468;2022-09-16T00:57:14;11.70;99.90
8563;DHT22;16392;52.508;13.468;2022-09-16T00:59:44;11.70;99.90
8563;DHT22;16392;52.508;13.468;2022-09-16T01:02:15;11.60;99.90
8563;DHT22;16392;52.508;13.468;2022-09-16T01:04:45;11.60;99.90
8563;DHT22;16392;52.508;13.468;2022-09-16T01:07:14;11.60;99.90
8563;DHT22;16392;52.508;13.468;2022-09-16T01:09:40;11.60;99.90
8563;DHT22;16392;52.508;13.468;2022-09-16T01:12:07;11.60;99.90
8563;DHT22;16392;52.508;13.468;2022-09-16T01:14:35;11.60;99.90
8563;DHT22;16392;52.508;13.468;2022-09-16T01:17:28;11.60;99.90
8563;DHT22;16392;52.508;13.468;2022-09-16T01:20:34;11.60;99.90
8563;DHT22;16392;52.508;13.468;2022-09-16T01:23:35;11.50;99.90
8563;DHT22;16392;52.508;13.468;2022-09-16T01:26:19;11.50;99.90
8563;DHT22;16392;52.508;13.468;2022-09-16T01:29:11;11.50;99.90
8563;DHT22;16392;52.508;13.468;2022-09-16T01:31:48;11.40;99.90
8563;DHT22;16392;52.508;13.468;2022-09-16T01:34:24;11.40;99.90
8563;DHT22;16392;52.508;13.468;2022-09-16T01:36:59;11.40;99.90
8563;DHT22;16392;52.508;13.468;2022-09-16T01:39:30;11.40;99.90
8563;DHT22;16392;52.508;13.468;2022-09-16T01:42:07;11.40;99.90
8563;DHT22;16392;52.508;13.468;2022-09-16T01:44:43;11.40;99.90
8563;DHT22;16392;52.508;13.468;2022-09-16T01:47:18;11.40;99.90
8563;DHT22;16392;52.508;13.468;2022-09-16T01:49:55;11.30;99.90
8563;DHT22;16392;52.508;13.468;2022-09-16T01:52:33;11.40;99.90
8563;DHT22;16392;52.508;13.468;2022-09-16T01:55:05;11.40;99.90
8563;DHT22;16392;52.508;13.468;2022-09-16T01:57:36;11.30;99.90
8563;DHT22;16392;52.508;13.468;2022-09-16T02:00:07;11.30;99.90
8563;DHT22;16392;52.508;13.468;2022-09-16T02:02:40;11.30;99.90
8563;DHT22;16392;52.508;13.468;2022-09-16T02:05:10;11.30;99.90
8563;DHT22;16392;52.508;13.468;2022-09-16T02:07:41;11.30;99.90
8563;DHT22;16392;52.508;13.468;2022-09-16T02:10:15;11.20;99.90
8563;DHT22;16392;52.508;13.468;2022-09-16T02:12:43;11.20;99.90
8563;DHT22;16392;52.508;13.468;2022-09-16T02:15:14;11.20;99.90
8563;DHT22;16392;52.508;13.468;2022-09-16T02:17:47;11.10;99.90
8563;DHT22;16392;52.508;13.468;2022-09-16T02:20:19;11.10;99.90
8563;DHT22;16392;52.508;13.468;2022-09-16T02:22:48;11.10;99.90
8563;DHT22;16392;52.508;13.468;2022-09-16T02:25:18;11.10;99.90
8563;DHT22;16392;52.508;13.468;2022-09-16T02:27:46;11.10;99.90
8563;DHT22;16392;52.508;13.468;2022-09-16T02:30:17;11.10;99.90
8563;DHT22;16392;52.508;13.468;2022-09-16T02:32:48;11.10;99.90
8563;DHT22;16392;52.508;13.468;2022-09-16T02:35:18;11.10;99.90
8563;DHT22;16392;52.508;13.468;2022-09-16T02:37:48;11.20;99.90
8563;DHT22;16392;52.508;13.468;2022-09-16T02:40:17;11.10;99.90
8563;DHT22;16392;52.508;13.468;2022-09-16T02:42:45;11.20;99.90
8563;DHT22;16392;52.508;13.468;2022-09-16T02:45:11;11.10;99.90
8563;DHT22;16392;52.508;13.468;2022-09-16T02:47:46;11.10;99.90
8563;DHT22;16392;52.508;13.468;2022-09-16T02:50:16;11.10;99.90
8563;DHT22;16392;52.508;13.468;2022-09-16T02:52:50;11.10;99.90
8563;DHT22;16392;52.508;13.468;2022-09-16T02:55:24;11.00;99.90
8563;DHT22;16392;52.508;13.468;2022-09-16T02:57:55;11.00;99.90
8563;DHT22;16392;52.508;13.468;2022-09-16T03:00:22;11.00;99.90
8563;DHT22;16392;52.508;13.468;2022-09-16T03:02:53;11.00;99.90
8563;DHT22;16392;52.508;13.468;2022-09-16T03:05:25;11.00;99.90
8563;DHT22;16392;52.508;13.468;2022-09-16T03:07:52;11.00;99.90
8563;DHT22;16392;52.508;13.468;2022-09-16T03:10:19;11.00;99.90
8563;DHT22;16392;52.508;13.468;2022-09-16T03:12:54;11.00;99.90
8563;DHT22;16392;52.508;13.468;2022-09-16T03:15:44;11.00;99.90
8563;DHT22;16392;52.508;13.468;2022-09-16T03:18:21;11.00;99.90
8563;DHT22;16392;52.508;13.468;2022-09-16T03:20:58;11.00;99.90
8563;DHT22;16392;52.508;13.468;2022-09-16T03:23:34;11.10;99.90
8563;DHT22;16392;52.508;13.468;2022-09-16T03:26:13;11.10;99.90
8563;DHT22;16392;52.508;13.468;2022-09-16T03:28:46;11.10;99.90
8563;DHT22;16392;52.508;13.468;2022-09-16T03:31:17;11.10;99.90
8563;DHT22;16392;52.508;13.468;2022-09-16T03:33:51;11.00;99.90
8563;DHT22;16392;52.508;13.468;2022-09-16T03:36:24;11.00;99.90
8563;DHT22;16392;52.508;13.468;2022-09-16T03:38:53;11.00;99.90
8563;DHT22;16392;52.508;13.468;2022-09-16T03:41:20;11.00;99.90
8563;DHT22;16392;52.508;13.468;2022-09-16T03:43:53;11.00;99.90
8563;DHT22;16392;52.508;13.468;2022-09-16T03:46:20;11.10;99.90
8563;DHT22;16392;52.508;13.468;2022-09-16T03:48:48;11.10;99.90
8563;DHT22;16392;52.508;13.468;2022-09-16T03:51:14;11.10;99.90
8563;DHT22;16392;52.508;13.468;2022-09-16T03:53:41;11.10;99.90
8563;DHT22;16392;52.508;13.468;2022-09-16T03:56:07;11.20;99.90
8563;DHT22;16392;52.508;13.468;2022-09-16T03:58:34;11.20;99.90
8563;DHT22;16392;52.508;13.468;2022-09-16T04:01:01;11.20;99.90
8563;DHT22;16392;52.508;13.468;2022-09-16T04:03:27;11.30;99.90
8563;DHT22;16392;52.508;13.468;2022-09-16T04:05:57;11.30;99.90
8563;DHT22;16392;52.508;13.468;2022-09-16T04:08:24;11.40;99.90
8563;DHT22;16392;52.508;13.468;2022-09-16T04:10:54;11.40;99.90
8563;DHT22;16392;52.508;13.468;2022-09-16T04:13:20;11.40;99.90
8563;DHT22;16392;52.508;13.468;2022-09-16T04:15:47;11.40;99.90
8563;DHT22;16392;52.508;13.468;2022-09-16T04:18:14;11.40;99.90
8563;DHT22;16392;52.508;13.468;2022-09-16T04:20:41;11.30;99.90
8563;DHT22;16392;52.508;13.468;2022-09-16T04:23:08;11.30;99.90
8563;DHT22;16392;52.508;13.468;2022-09-16T04:25:35;11.30;99.90
8563;DHT22;16392;52.508;13.468;2022-09-16T04:28:02;11.30;99.90
8563;DHT22;16392;52.508;13.468;2022-09-16T04:30:28;11.20;99.90
8563;DHT22;16392;52.508;13.468;2022-09-16T04:32:55;11.20;99.90
8563;DHT22;16392;52.508;13.468;2022-09-16T04:35:22;11.20;99.90
8563;DHT22;16392;52.508;13.468;2022-09-16T04:37:49;11.20;99.90
8563;DHT22;16392;52.508;13.468;2022-09-16T04:40:18;11.30;99.90
8563;DHT22;16392;52.508;13.468;2022-09-16T04:42:47;11.20;99.90
8563;DHT22;16392;52.508;13.468;2022-09-16T04:45:15;11.30;99.90
8563;DHT22;16392;52.508;13.468;2022-09-16T04:47:41;11.30;99.90
8563;DHT22;16392;52.508;13.468;2022-09-16T04:50:09;11.20;99.90
8563;DHT22;16392;52.508;13.468;2022-09-16T04:52:36;11.20;99.90
8563;DHT22;16392;52.508;13.468;2022-09-16T04:55:03;11.10;99.90
8563;DHT22;16392;52.508;13.468;2022-09-16T04:57:31;11.10;99.90
8563;DHT22;16392;52.508;13.468;2022-09-16T04:59:58;11.10;99.90
8563;DHT22;16392;52.508;13.468;2022-09-16T05:02:24;11.10;99.90
8563;DHT22;16392;52.508;13.468;2022-09-16T05:04:53;11.20;99.90
8563;DHT22;16392;52.508;13.468;2022-09-16T05:07:19;11.20;99.90
8563;DHT22;16392;52.508;13.468;2022-09-16T05:09:46;11.30;99.90
8563;DHT22;16392;52.508;13.468;2022-09-16T05:12:12;11.30;99.90
8563;DHT22;16392;52.508;13.468;2022-09-16T05:14:40;11.30;99.90
8563;DHT22;16392;52.508;13.468;2022-09-16T05:17:07;11.40;99.90
8563;DHT22;16392;52.508;13.468;2022-09-16T05:19:33;11.40;99.90
8563;DHT22;16392;52.508;13.468;2022-09-16T05:22:00;11.40;99.90
8563;DHT22;16392;52.508;13.468;2022-09-16T05:24:33;11.50;99.90
8563;DHT22;16392;52.508;13.468;2022-09-16T05:27:00;11.50;99.90
8563;DHT22;16392;52.508;13.468;2022-09-16T05:29:27;11.40;99.90
8563;DHT22;16392;52.508;13.468;2022-09-16T05:31:55;11.40;99.90
8563;DHT22;16392;52.508;13.468;2022-09-16T05:34:22;11.50;99.90
8563;DHT22;16392;52.508;13.468;2022-09-16T05:36:53;11.60;99.90
8563;DHT22;16392;52.508;13.468;2022-09-16T05:39:20;11.70;99.90
8563;DHT22;16392;52.508;13.468;2022-09-16T05:41:48;11.80;99.90
8563;DHT22;16392;52.508;13.468;2022-09-16T05:44:15;11.80;99.90
8563;DHT22;16392;52.508;13.468;2022-09-16T05:46:41;11.90;99.90
8563;DHT22;16392;52.508;13.468;2022-09-16T05:49:10;11.90;99.90
8563;DHT22;16392;52.508;13.468;2022-09-16T05:51:38;12.00;99.90
8563;DHT22;16392;52.508;13.468;2022-09-16T05:54:06;12.20;99.90
8563;DHT22;16392;52.508;13.468;2022-09-16T05:56:32;12.60;99.90
8563;DHT22;16392;52.508;13.468;2022-09-16T05:59:00;12.50;99.90
8563;DHT22;16392;52.508;13.468;2022-09-16T06:01:28;12.40;99.90
8563;DHT22;16392;52.508;13.468;2022-09-16T06:03:55;12.80;99.90
8563;DHT22;16392;52.508;13.468;2022-09-16T06:06:26;13.00;99.90
8563;DHT22;16392;52.508;13.468;2022-09-16T06:08:54;13.10;99.90
8563;DHT22;16392;52.508;13.468;2022-09-16T06:11:22;13.20;99.90
8563;DHT22;16392;52.508;13.468;2022-09-16T06:13:52;13.30;99.90
8563;DHT22;16392;52.508;13.468;2022-09-16T06:16:20;13.30;99.90
8563;DHT22;16392;52.508;13.468;2022-09-16T06:18:47;13.30;99.90
8563;DHT22;16392;52.508;13.468;2022-09-16T06:21:13;13.20;99.90
8563;DHT22;16392;52.508;13.468;2022-09-16T06:23:42;13.10;99.90
8563;DHT22;16392;52.508;13.468;2022-09-16T06:26:11;13.00;99.90
8563;DHT22;16392;52.508;13.468;2022-09-16T06:28:38;13.20;99.90
8563;DHT22;16392;52.508;13.468;2022-09-16T06:31:09;13.80;99.90
8563;DHT22;16392;52.508;13.468;2022-09-16T06:33:36;13.70;99.90
8563;DHT22;16392;52.508;13.468;2022-09-16T06:36:03;13.60;99.90
8563;DHT22;16392;52.508;13.468;2022-09-16T06:38:30;13.50;99.90
8563;DHT22;16392;52.508;13.468;2022-09-16T06:40:59;13.20;99.90
8563;DHT22;16392;52.508;13.468;2022-09-16T06:43:26;13.10;99.90
8563;DHT22;16392;52.508;13.468;2022-09-16T06:45:56;13.10;99.90
8563;DHT22;16392;52.508;13.468;2022-09-16T06:48:23;13.20;99.90
8563;DHT22;16392;52.508;13.468;2022-09-16T06:50:56;13.50;99.90
8563;DHT22;16392;52.508;13.468;2022-09-16T06:53:23;13.70;99.90
8563;DHT22;16392;52.508;13.468;2022-09-16T06:55:50;13.60;99.90
8563;DHT22;16392;52.508;13.468;2022-09-16T06:58:18;13.50;99.90
8563;DHT22;16392;52.508;13.468;2022-09-16T07:00:45;13.30;99.90
8563;DHT22;16392;52.508;13.468;2022-09-16T07:03:12;13.30;99.90
8563;DHT22;16392;52.508;13.468;2022-09-16T07:05:38;13.20;99.90
8563;DHT22;16392;52.508;13.468;2022-09-16T07:08:05;13.40;99.90
8563;DHT22;16392;52.508;13.468;2022-09-16T07:10:31;14.10;99.90
8563;DHT22;16392;52.508;13.468;2022-09-16T07:12:58;14.00;99.90
8563;DHT22;16392;52.508;13.468;2022-09-16T07:15:26;14.10;99.90
8563;DHT22;16392;52.508;13.468;2022-09-16T07:17:53;15.00;26.70
8563;DHT22;16392;52.508;13.468;2022-09-16T07:20:19;15.10;1.00
8563;DHT22;16392;52.508;13.468;2022-09-16T07:22:46;15.00;1.00
8563;DHT22;16392;52.508;13.468;2022-09-16T07:25:15;14.70;1.00
8563;DHT22;16392;52.508;13.468;2022-09-16T07:27:41;14.80;1.00
8563;DHT22;16392;52.508;13.468;2022-09-16T07:30:09;14.80;1.00
8563;DHT22;16392;52.508;13.468;2022-09-16T07:32:37;14.70;1.00
8563;DHT22;16392;52.508;13.468;2022-09-16T07:35:04;15.60;1.00
8563;DHT22;16392;52.508;13.468;2022-09-16T07:37:30;15.90;1.00
8563;DHT22;16392;52.508;13.468;2022-09-16T07:39:57;16.90;1.00
8563;DHT22;16392;52.508;13.468;2022-09-16T07:42:24;17.90;6.40
8563;DHT22;16392;52.508;13.468;2022-09-16T07:44:50;17.90;99.90
8563;DHT22;16392;52.508;13.468;2022-09-16T07:47:17;18.40;1.00
8563;DHT22;16392;52.508;13.468;2022-09-16T07:49:45;17.70;1.00
8563;DHT22;16392;52.508;13.468;2022-09-16T07:52:12;17.00;1.00
8563;DHT22;16392;52.508;13.468;2022-09-16T07:54:39;16.90;1.00
8563;DHT22;16392;52.508;13.468;2022-09-16T07:57:06;17.40;99.90
8563;DHT22;16392;52.508;13.468;2022-09-16T07:59:32;18.40;1.00
8563;DHT22;16392;52.508;13.468;2022-09-16T08:01:59;19.00;1.00
8563;DHT22;16392;52.508;13.468;2022-09-16T08:04:25;19.40;1.00
8563;DHT22;16392;52.508;13.468;2022-09-16T08:06:53;19.80;1.00
8563;DHT22;16392;52.508;13.468;2022-09-16T08:09:20;18.50;1.00
8563;DHT22;16392;52.508;13.468;2022-09-16T08:11:47;17.10;99.90
8563;DHT22;16392;52.508;13.468;2022-09-16T08:14:14;16.80;90.00
8563;DHT22;16392;52.508;13.468;2022-09-16T08:16:41;16.60;1.00
8563;DHT22;16392;52.508;13.468;2022-09-16T08:19:08;16.70;69.20
8563;DHT22;16392;52.508;13.468;2022-09-16T08:21:34;16.70;99.90
8563;DHT22;16392;52.508;13.468;2022-09-16T08:24:02;17.00;1.00
8563;DHT22;16392;52.508;13.468;2022-09-16T08:26:29;16.90;1.00
8563;DHT22;16392;52.508;13.468;2022-09-16T08:28:56;16.90;1.00
8563;DHT22;16392;52.508;13.468;2022-09-16T08:31:22;16.60;99.90
8563;DHT22;16392;52.508;13.468;2022-09-16T08:33:49;16.80;99.90
8563;DHT22;16392;52.508;13.468;2022-09-16T08:36:17;16.50;99.90
8563;DHT22;16392;52.508;13.468;2022-09-16T08:38:46;16.20;99.90
8563;DHT22;16392;52.508;13.468;2022-09-16T08:41:25;16.70;33.00
8563;DHT22;16392;52.508;13.468;2022-09-16T08:43:58;17.10;99.90
8563;DHT22;16392;52.508;13.468;2022-09-16T08:46:31;16.90;99.90
8563;DHT22;16392;52.508;13.468;2022-09-16T08:49:05;17.10;99.90
8563;DHT22;16392;52.508;13.468;2022-09-16T08:51:32;16.90;1.00
8563;DHT22;16392;52.508;13.468;2022-09-16T08:54:02;16.60;99.90
8563;DHT22;16392;52.508;13.468;2022-09-16T08:56:33;17.50;1.00
8563;DHT22;16392;52.508;13.468;2022-09-16T08:59:02;17.80;65.70
8563;DHT22;16392;52.508;13.468;2022-09-16T09:01:35;17.80;1.00
8563;DHT22;16392;52.508;13.468;2022-09-16T09:04:04;18.30;99.90
8563;DHT22;16392;52.508;13.468;2022-09-16T09:06:44;18.30;1.00
8563;DHT22;16392;52.508;13.468;2022-09-16T09:09:31;17.60;1.00
8563;DHT22;16392;52.508;13.468;2022-09-16T09:12:06;18.10;1.00
8563;DHT22;16392;52.508;13.468;2022-09-16T09:14:44;18.50;71.00
8563;DHT22;16392;52.508;13.468;2022-09-16T09:17:17;18.40;1.00
8563;DHT22;16392;52.508;13.468;2022-09-16T09:19:55;18.10;1.00
8563;DHT22;16392;52.508;13.468;2022-09-16T09:22:45;18.20;1.00
8563;DHT22;16392;52.508;13.468;2022-09-16T09:25:21;17.90;1.00
8563;DHT22;16392;52.508;13.468;2022-09-16T09:28:03;17.40;1.00
8563;DHT22;16392;52.508;13.468;2022-09-16T09:30:35;17.50;99.90
8563;DHT22;16392;52.508;13.468;2022-09-16T09:33:18;18.50;1.00
8563;DHT22;16392;52.508;13.468;2022-09-16T09:36:00;18.80;99.90
8563;DHT22;16392;52.508;13.468;2022-09-16T09:38:42;19.30;99.90
8563;DHT22;16392;52.508;13.468;2022-09-16T09:41:13;20.00;99.90
8563;DHT22;16392;52.508;13.468;2022-09-16T09:43:46;19.80;1.00
8563;DHT22;16392;52.508;13.468;2022-09-16T09:46:18;19.70;1.00
8563;DHT22;16392;52.508;13.468;2022-09-16T09:48:52;19.30;1.00
8563;DHT22;16392;52.508;13.468;2022-09-16T09:51:25;19.20;1.00
8563;DHT22;16392;52.508;13.468;2022-09-16T09:53:56;19.20;1.00
8563;DHT22;16392;52.508;13.468;2022-09-16T09:56:27;19.00;1.00
8563;DHT22;16392;52.508;13.468;2022-09-16T09:59:01;18.90;1.00
8563;DHT22;16392;52.508;13.468;2022-09-16T10:01:28;19.30;1.00
8563;DHT22;16392;52.508;13.468;2022-09-16T10:03:55;19.40;1.00
8563;DHT22;16392;52.508;13.468;2022-09-16T10:06:27;19.60;1.00
8563;DHT22;16392;52.508;13.468;2022-09-16T10:08:56;19.50;1.00
8563;DHT22;16392;52.508;13.468;2022-09-16T10:11:25;19.60;1.00
8563;DHT22;16392;52.508;13.468;2022-09-16T10:13:53;19.20;1.00
8563;DHT22;16392;52.508;13.468;2022-09-16T10:16:25;18.50;1.00
8563;DHT22;16392;52.508;13.468;2022-09-16T10:18:55;18.30;1.00
8563;DHT22;16392;52.508;13.468;2022-09-16T10:21:24;18.70;1.00
8563;DHT22;16392;52.508;13.468;2022-09-16T10:23:55;18.60;1.00
8563;DHT22;16392;52.508;13.468;2022-09-16T10:26:24;18.70;1.00
8563;DHT22;16392;52.508;13.468;2022-09-16T10:28:56;18.80;1.00
8563;DHT22;16392;52.508;13.468;2022-09-16T10:31:28;19.20;1.00
8563;DHT22;16392;52.508;13.468;2022-09-16T10:33:55;19.50;1.00
8563;DHT22;16392;52.508;13.468;2022-09-16T10:36:23;19.20;1.00
8563;DHT22;16392;52.508;13.468;2022-09-16T10:38:54;19.10;1.00
8563;DHT22;16392;52.508;13.468;2022-09-16T10:41:24;18.80;1.00
8563;DHT22;16392;52.508;13.468;2022-09-16T10:43:53;19.20;1.00
8563;DHT22;16392;52.508;13.468;2022-09-16T10:46:22;19.70;1.00
8563;DHT22;16392;52.508;13.468;2022-09-16T10:48:50;19.70;1.00
8563;DHT22;16392;52.508;13.468;2022-09-16T10:51:22;20.30;99.90
8563;DHT22;16392;52.508;13.468;2022-09-16T10:53:52;20.40;99.90
8563;DHT22;16392;52.508;13.468;2022-09-16T10:56:22;19.70;99.90
8563;DHT22;16392;52.508;13.468;2022-09-16T10:59:01;19.00;99.90
8563;DHT22;16392;52.508;13.468;2022-09-16T11:01:36;19.00;99.90
8563;DHT22;16392;52.508;13.468;2022-09-16T11:04:21;19.10;99.90
8563;DHT22;16392;52.508;13.468;2022-09-16T11:06:58;19.30;99.90
8563;DHT22;16392;52.508;13.468;2022-09-16T11:09:33;19.90;99.90
8563;DHT22;16392;52.508;13.468;2022-09-16T11:12:17;20.10;99.90
8563;DHT22;16392;52.508;13.468;2022-09-16T11:14:53;20.50;99.90
8563;DHT22;16392;52.508;13.468;2022-09-16T11:17:42;20.50;99.90
8563;DHT22;16392;52.508;13.468;2022-09-16T11:23:26;19.10;99.90
8563;DHT22;16392;52.508;13.468;2022-09-16T11:25:59;19.00;99.90
8563;DHT22;16392;52.508;13.468;2022-09-16T11:28:45;18.50;99.90
8563;DHT22;16392;52.508;13.468;2022-09-16T11:31:21;18.10;99.90
8563;DHT22;16392;52.508;13.468;2022-09-16T11:33:58;18.00;99.90
8563;DHT22;16392;52.508;13.468;2022-09-16T11:36:39;17.60;99.90
8563;DHT22;16392;52.508;13.468;2022-09-16T11:39:30;17.60;99.90
8563;DHT22;16392;52.508;13.468;2022-09-16T11:42:07;17.90;99.90
8563;DHT22;16392;52.508;13.468;2022-09-16T11:44:44;17.90;99.90
8563;DHT22;16392;52.508;13.468;2022-09-16T11:47:26;17.70;99.90
8563;DHT22;16392;52.508;13.468;2022-09-16T11:50:07;18.20;99.90
8563;DHT22;16392;52.508;13.468;2022-09-16T11:55:40;19.10;99.90
8563;DHT22;16392;52.508;13.468;2022-09-16T11:58:21;18.80;99.90
8563;DHT22;16392;52.508;13.468;2022-09-16T12:00:52;18.40;99.90
8563;DHT22;16392;52.508;13.468;2022-09-16T12:03:25;18.00;99.90
8563;DHT22;16392;52.508;13.468;2022-09-16T12:05:57;18.00;99.90
8563;DHT22;16392;52.508;13.468;2022-09-16T12:08:34;18.50;99.90
8563;DHT22;16392;52.508;13.468;2022-09-16T12:11:07;18.30;99.90
8563;DHT22;16392;52.508;13.468;2022-09-16T12:13:41;18.20;99.90
8563;DHT22;16392;52.508;13.468;2022-09-16T12:16:13;17.90;99.90
8563;DHT22;16392;52.508;13.468;2022-09-16T12:18:43;17.70;99.90
8563;DHT22;16392;52.508;13.468;2022-09-16T12:21:15;18.20;99.90
8563;DHT22;16392;52.508;13.468;2022-09-16T12:23:49;18.00;99.90
8563;DHT22;16392;52.508;13.468;2022-09-16T12:26:20;18.60;99.90
8563;DHT22;16392;52.508;13.468;2022-09-16T12:28:53;19.10;99.90
8563;DHT22;16392;52.508;13.468;2022-09-16T12:31:24;19.30;99.90
8563;DHT22;16392;52.508;13.468;2022-09-16T12:33:56;19.30;99.90
8563;DHT22;16392;52.508;13.468;2022-09-16T12:36:26;19.90;99.90
8563;DHT22;16392;52.508;13.468;2022-09-16T12:38:56;20.50;99.90
8563;DHT22;16392;52.508;13.468;2022-09-16T12:41:42;20.40;99.90
8563;DHT22;16392;52.508;13.468;2022-09-16T12:44:41;20.00;99.90
8563;DHT22;16392;52.508;13.468;2022-09-16T12:47:31;20.00;99.90
8563;DHT22;16392;52.508;13.468;2022-09-16T12:50:37;19.50;99.90
8563;DHT22;16392;52.508;13.468;2022-09-16T12:53:35;19.50;99.90
8563;DHT22;16392;52.508;13.468;2022-09-16T12:56:15;19.00;99.90
8563;DHT22;16392;52.508;13.468;2022-09-16T12:58:55;18.70;92.50
8563;DHT22;16392;52.508;13.468;2022-09-16T13:01:28;18.60;99.90
8563;DHT22;16392;52.508;13.468;2022-09-16T13:03:58;18.80;99.90
8563;DHT22;16392;52.508;13.468;2022-09-16T13:06:27;19.20;99.90
8563;DHT22;16392;52.508;13.468;2022-09-16T13:08:55;19.40;99.90
8563;DHT22;16392;52.508;13.468;2022-09-16T13:11:26;19.70;99.90
8563;DHT22;16392;52.508;13.468;2022-09-16T13:13:56;20.10;99.90
8563;DHT22;16392;52.508;13.468;2022-09-16T13:16:29;20.00;99.90
8563;DHT22;16392;52.508;13.468;2022-09-16T13:19:24;20.40;99.90
8563;DHT22;16392;52.508;13.468;2022-09-16T13:21:55;20.40;99.90
8563;DHT22;16392;52.508;13.468;2022-09-16T13:24:28;20.30;99.90
8563;DHT22;16392;52.508;13.468;2022-09-16T13:26:58;20.10;46.40
8563;DHT22;16392;52.508;13.468;2022-09-16T13:29:40;20.10;32.60
8563;DHT22;16392;52.508;13.468;2022-09-16T13:32:24;20.20;1.00
8563;DHT22;16392;52.508;13.468;2022-09-16T13:35:00;19.70;1.00
8563;DHT22;16392;52.508;13.468;2022-09-16T13:37:27;19.60;1.00
8563;DHT22;16392;52.508;13.468;2022-09-16T13:39:54;19.70;1.00
8563;DHT22;16392;52.508;13.468;2022-09-16T13:42:22;19.70;1.00
8563;DHT22;16392;52.508;13.468;2022-09-16T13:44:50;19.80;1.00
8563;DHT22;16392;52.508;13.468;2022-09-16T13:47:28;19.90;1.00
8563;DHT22;16392;52.508;13.468;2022-09-16T13:49:59;19.60;1.00
8563;DHT22;16392;52.508;13.468;2022-09-16T13:52:29;19.90;1.00
8563;DHT22;16392;52.508;13.468;2022-09-16T13:54:58;19.90;1.00
8563;DHT22;16392;52.508;13.468;2022-09-16T13:57:42;19.90;1.00
8563;DHT22;16392;52.508;13.468;2022-09-16T14:00:22;20.00;1.00
8563;DHT22;16392;52.508;13.468;2022-09-16T14:03:24;20.00;1.00
8563;DHT22;16392;52.508;13.468;2022-09-16T14:06:02;20.10;1.00
8563;DHT22;16392;52.508;13.468;2022-09-16T14:08:38;19.50;1.00
8563;DHT22;16392;52.508;13.468;2022-09-16T14:11:09;19.00;1.00
8563;DHT22;16392;52.508;13.468;2022-09-16T14:13:42;18.60;1.00
8563;DHT22;16392;52.508;13.468;2022-09-16T14:16:15;18.80;1.00
8563;DHT22;16392;52.508;13.468;2022-09-16T14:18:51;19.20;1.00
8563;DHT22;16392;52.508;13.468;2022-09-16T14:21:20;19.40;1.00
8563;DHT22;16392;52.508;13.468;2022-09-16T14:23:47;19.10;1.00
8563;DHT22;16392;52.508;13.468;2022-09-16T14:26:15;18.90;1.00
8563;DHT22;16392;52.508;13.468;2022-09-16T14:28:44;18.70;1.00
8563;DHT22;16392;52.508;13.468;2022-09-16T14:31:14;18.70;1.00
8563;DHT22;16392;52.508;13.468;2022-09-16T14:33:44;18.70;1.00
8563;DHT22;16392;52.508;13.468;2022-09-16T14:36:17;18.80;1.00
8563;DHT22;16392;52.508;13.468;2022-09-16T14:38:46;18.70;1.00
8563;DHT22;16392;52.508;13.468;2022-09-16T14:41:24;18.70;1.00
8563;DHT22;16392;52.508;13.468;2022-09-16T14:43:55;18.50;1.00
8563;DHT22;16392;52.508;13.468;2022-09-16T14:46:25;18.70;1.00
8563;DHT22;16392;52.508;13.468;2022-09-16T14:48:52;18.80;1.00
8563;DHT22;16392;52.508;13.468;2022-09-16T14:51:21;18.90;1.00
8563;DHT22;16392;52.508;13.468;2022-09-16T14:53:56;18.90;1.00
8563;DHT22;16392;52.508;13.468;2022-09-16T14:56:24;18.90;1.00
8563;DHT22;16392;52.508;13.468;2022-09-16T14:58:53;18.80;1.00
8563;DHT22;16392;52.508;13.468;2022-09-16T15:01:23;18.80;1.00
8563;DHT22;16392;52.508;13.468;2022-09-16T15:03:54;18.70;1.00
8563;DHT22;16392;52.508;13.468;2022-09-16T15:06:27;18.70;1.00
8563;DHT22;16392;52.508;13.468;2022-09-16T15:08:56;18.60;1.00
8563;DHT22;16392;52.508;13.468;2022-09-16T15:11:26;18.50;1.00
8563;DHT22;16392;52.508;13.468;2022-09-16T15:13:55;18.40;1.00
8563;DHT22;16392;52.508;13.468;2022-09-16T15:16:23;18.30;1.00
8563;DHT22;16392;52.508;13.468;2022-09-16T15:18:53;18.30;1.00
8563;DHT22;16392;52.508;13.468;2022-09-16T15:21:23;18.30;1.00
8563;DHT22;16392;52.508;13.468;2022-09-16T15:23:53;18.20;1.00
8563;DHT22;16392;52.508;13.468;2022-09-16T15:26:21;18.20;1.00
8563;DHT22;16392;52.508;13.468;2022-09-16T15:28:59;18.10;1.00
8563;DHT22;16392;52.508;13.468;2022-09-16T15:31:28;18.00;1.00
8563;DHT22;16392;52.508;13.468;2022-09-16T15:33:57;17.90;1.00
8563;DHT22;16392;52.508;13.468;2022-09-16T15:36:38;17.80;1.00
8563;DHT22;16392;52.508;13.468;2022-09-16T15:39:21;17.90;1.00
8563;DHT22;16392;52.508;13.468;2022-09-16T15:41:48;17.90;1.00
8563;DHT22;16392;52.508;13.468;2022-09-16T15:44:18;17.90;1.00
8563;DHT22;16392;52.508;13.468;2022-09-16T15:46:47;17.80;1.00
8563;DHT22;16392;52.508;13.468;2022-09-16T15:49:15;17.80;1.00
8563;DHT22;16392;52.508;13.468;2022-09-16T15:51:45;17.80;1.00
8563;DHT22;16392;52.508;13.468;2022-09-16T15:54:16;17.80;1.00
8563;DHT22;16392;52.508;13.468;2022-09-16T15:56:54;17.70;1.00
8563;DHT22;16392;52.508;13.468;2022-09-16T15:59:30;17.60;1.00
8563;DHT22;16392;52.508;13.468;2022-09-16T16:02:01;17.60;1.00
8563;DHT22;16392;52.508;13.468;2022-09-16T16:04:31;17.60;1.00
8563;DHT22;16392;52.508;13.468;2022-09-16T16:06:58;17.60;1.00